Time;durP1;ratioP1;P1;durP2;ratioP2;P2;SDS_P1;SDS_P2;PMS_P1;PMS_P2;Temp;Humidity;BMP_temperature;BMP_pressure;BME280_temperature;BME280_humidity;BME280_pressure;Samples;Min_cycle;Max_cycle;Signal;HPM_P1;HPM_P2
2022/11/27 06:03:53;;;;;;;8.33;2.80;;;8.80;99.90;;;;;;4087055;29;20234;-91
2022/11/27 06:05:54;;;;;;;12.17;3.27;;;9.00;99.90;;;;;;4072723;29;20181;-92
2022/11/27 06:07:58;;;;;;;9.15;2.80;;;8.90;99.90;;;;;;4087511;29;20645;-92
2022/11/27 06:09:58;;;;;;;6.97;2.90;;;8.90;99.90;;;;;;4072546;29;20223;-93
2022/11/27 06:11:59;;;;;;;8.97;2.90;;;8.80;99.90;;;;;;4073936;29;20172;-91
2022/11/27 06:14:00;;;;;;;6.17;2.67;;;8.80;99.90;;;;;;4076292;29;20183;-92
2022/11/27 06:16:06;;;;;;;8.65;3.10;;;8.80;99.90;;;;;;4075906;29;20169;-92
2022/11/27 06:18:08;;;;;;;8.93;3.08;;;8.90;99.90;;;;;;4093457;29;20188;-91
2022/11/27 06:20:09;;;;;;;5.57;2.77;;;8.70;99.90;;;;;;4090856;29;20175;-89
2022/11/27 06:22:14;;;;;;;9.80;2.83;;;8.70;99.90;;;;;;4088583;29;20275;-92
2022/11/27 06:24:15;;;;;;;9.37;3.57;;;8.80;99.90;;;;;;4058817;29;20205;-91
2022/11/27 06:26:18;;;;;;;7.80;3.50;;;8.80;99.90;;;;;;4075105;29;20168;-91
2022/11/27 06:28:19;;;;;;;6.70;2.80;;;8.80;99.90;;;;;;4090599;29;20183;-94
2022/11/27 06:30:20;;;;;;;9.02;3.17;;;8.80;99.90;;;;;;4075719;29;20180;-93
2022/11/27 06:32:21;;;;;;;10.40;2.50;;;8.80;99.90;;;;;;4089762;29;20187;-93
2022/11/27 06:34:22;;;;;;;6.30;2.80;;;8.90;99.90;;;;;;4090896;29;20191;-92
2022/11/27 06:36:28;;;;;;;11.10;2.92;;;9.10;99.90;;;;;;4075046;29;20584;-91
2022/11/27 06:38:33;;;;;;;10.15;2.83;;;9.20;99.90;;;;;;4073129;29;20172;-94
2022/11/27 06:40:34;;;;;;;9.60;2.60;;;9.20;99.90;;;;;;4072946;29;20175;-92
2022/11/27 06:42:40;;;;;;;11.43;2.88;;;9.20;99.90;;;;;;4091891;29;20207;-91
2022/11/27 06:44:42;;;;;;;6.60;2.57;;;9.10;99.90;;;;;;4076794;29;20220;-92
2022/11/27 06:46:43;;;;;;;8.90;2.73;;;9.00;99.90;;;;;;4075542;29;20194;-92
2022/11/27 06:48:45;;;;;;;14.23;3.42;;;9.10;99.90;;;;;;4073445;29;20176;-91
2022/11/27 06:50:46;;;;;;;7.35;2.72;;;8.90;99.90;;;;;;4091136;29;20326;-94
2022/11/27 06:52:50;;;;;;;10.37;2.67;;;8.90;99.90;;;;;;4075189;29;20172;-94
2022/11/27 06:54:51;;;;;;;10.30;2.83;;;8.80;99.90;;;;;;4091881;29;20195;-93
2022/11/27 06:56:52;;;;;;;10.77;2.43;;;8.80;99.90;;;;;;4092473;29;20222;-92
2022/11/27 06:59:02;;;;;;;7.07;2.40;;;8.70;99.90;;;;;;4090557;29;20179;-90
2022/11/27 07:01:07;;;;;;;7.82;3.20;;;8.70;99.90;;;;;;4072932;29;20192;-92
2022/11/27 07:03:07;;;;;;;10.23;2.80;;;8.70;99.90;;;;;;4072826;29;20256;-91
2022/11/27 07:05:08;;;;;;;9.60;2.77;;;8.70;99.90;;;;;;4073174;29;20200;-92
2022/11/27 07:07:10;;;;;;;7.00;2.77;;;8.90;99.90;;;;;;4089808;29;20215;-93
2022/11/27 07:09:11;;;;;;;8.93;2.70;;;8.90;99.90;;;;;;4073978;29;20168;-93
2022/11/27 07:11:17;;;;;;;7.95;3.00;;;8.90;99.90;;;;;;4073969;29;20168;-93
2022/11/27 07:13:17;;;;;;;7.53;2.87;;;9.00;99.90;;;;;;4073330;29;20172;-93
2022/11/27 07:15:19;;;;;;;9.77;3.07;;;8.90;99.90;;;;;;4092243;29;20615;-92
2022/11/27 07:17:20;;;;;;;6.07;2.53;;;8.80;99.90;;;;;;4075597;29;20263;-94
2022/11/27 07:19:21;;;;;;;7.45;2.70;;;8.80;99.90;;;;;;4089765;29;20179;-90
2022/11/27 07:21:22;;;;;;;9.55;3.20;;;8.80;99.90;;;;;;4075627;29;20156;-93
2022/11/27 07:23:22;;;;;;;10.17;3.30;;;8.90;99.90;;;;;;4075159;29;20322;-93
2022/11/27 07:25:23;;;;;;;4.53;2.47;;;8.80;99.90;;;;;;4074171;29;20184;-90
2022/11/27 07:27:27;;;;;;;12.53;3.50;;;8.60;99.90;;;;;;4076442;29;20180;-91
2022/11/27 07:29:28;;;;;;;8.80;2.97;;;8.70;99.90;;;;;;4073011;29;20208;-94
2022/11/27 07:31:29;;;;;;;8.07;3.53;;;8.70;99.90;;;;;;4075856;29;20184;-92
2022/11/27 07:33:31;;;;;;;7.75;3.05;;;8.80;99.90;;;;;;4089529;29;20191;-92
2022/11/27 07:35:36;;;;;;;11.15;3.28;;;8.80;99.90;;;;;;4087384;29;20188;-90
2022/11/27 07:37:37;;;;;;;11.23;3.60;;;8.90;99.90;;;;;;4075079;29;20680;-92
2022/11/27 07:39:38;;;;;;;10.47;3.50;;;8.80;99.90;;;;;;4075734;29;20597;-93
2022/11/27 07:41:39;;;;;;;10.67;3.47;;;8.50;99.90;;;;;;4071390;29;20260;-94
2022/11/27 07:43:45;;;;;;;8.93;3.60;;;8.60;99.90;;;;;;4089174;29;20580;-92
2022/11/27 07:45:47;;;;;;;6.53;3.03;;;8.70;99.90;;;;;;4074005;29;20180;-91
2022/11/27 07:47:47;;;;;;;10.50;3.35;;;8.80;99.90;;;;;;4073626;29;20728;-91
2022/11/27 07:49:48;;;;;;;8.32;3.03;;;9.00;99.90;;;;;;4074648;29;20183;-92
2022/11/27 07:51:49;;;;;;;7.23;3.67;;;8.90;99.90;;;;;;4074297;29;20183;-90
2022/11/27 07:54:09;;;;;;;9.20;3.23;;;8.90;99.90;;;;;;4089330;29;20266;-93
2022/11/27 07:56:12;;;;;;;8.00;3.60;;;8.90;99.90;;;;;;4075861;29;20173;-93
2022/11/27 07:58:13;;;;;;;7.30;3.23;;;9.10;99.90;;;;;;4073122;29;20180;-91
2022/11/27 08:00:14;;;;;;;10.18;3.60;;;9.10;99.90;;;;;;4088949;29;20190;-91
2022/11/27 08:02:15;;;;;;;12.35;3.60;;;9.20;99.90;;;;;;4089975;29;20183;-91
2022/11/27 08:04:15;;;;;;;8.00;3.63;;;9.10;99.90;;;;;;4077050;29;20295;-91
2022/11/27 08:06:25;;;;;;;8.13;3.10;;;8.80;99.90;;;;;;4088457;29;20175;-94
2022/11/27 08:08:27;;;;;;;10.43;3.57;;;8.70;99.90;;;;;;4090296;29;20186;-90
2022/11/27 08:10:27;;;;;;;6.57;3.30;;;8.80;99.90;;;;;;4073797;29;20215;-91
2022/11/27 08:12:28;;;;;;;9.07;3.60;;;8.90;99.90;;;;;;4074117;29;20606;-92
2022/11/27 08:14:32;;;;;;;10.37;3.70;;;8.90;99.90;;;;;;4073385;29;20200;-93
2022/11/27 08:16:36;;;;;;;6.77;3.20;;;8.80;99.90;;;;;;4074337;29;20175;-90
2022/11/27 08:18:37;;;;;;;10.23;3.60;;;8.80;99.90;;;;;;4075208;29;20176;-90
2022/11/27 08:20:38;;;;;;;7.77;3.40;;;8.80;99.90;;;;;;4072527;29;20244;-93
2022/11/27 08:22:38;;;;;;;8.83;3.10;;;8.80;99.90;;;;;;4090666;29;20210;-91
2022/11/27 08:24:41;;;;;;;9.33;3.43;;;8.80;99.90;;;;;;4074164;29;20204;-92
2022/11/27 08:26:45;;;;;;;10.90;3.53;;;9.00;99.90;;;;;;4089919;29;20180;-94
2022/11/27 08:28:46;;;;;;;9.83;3.70;;;9.00;99.90;;;;;;4073072;29;20279;-92
2022/11/27 08:30:59;;;;;;;8.07;3.30;;;9.00;99.90;;;;;;4090282;29;20167;-90
2022/11/27 08:33:05;;;;;;;8.77;3.40;;;9.20;99.90;;;;;;4073516;29;20171;-92
2022/11/27 08:35:07;;;;;;;12.17;3.60;;;9.00;99.90;;;;;;4073139;29;20279;-91
2022/11/27 08:37:08;;;;;;;7.77;2.87;;;9.00;99.90;;;;;;4075255;29;20176;-91
2022/11/27 08:39:09;;;;;;;10.40;3.77;;;9.00;99.90;;;;;;4074146;29;20172;-93
2022/11/27 08:41:09;;;;;;;8.27;3.17;;;9.00;99.90;;;;;;4073976;29;20163;-91
2022/11/27 08:43:10;;;;;;;12.03;3.60;;;9.30;99.90;;;;;;4072879;29;20220;-91
2022/11/27 08:45:11;;;;;;;8.13;3.50;;;9.20;99.90;;;;;;4090327;29;20186;-93
2022/11/27 08:47:14;;;;;;;8.83;3.53;;;9.20;99.90;;;;;;4090360;29;20467;-89
2022/11/27 08:49:17;;;;;;;6.22;3.25;;;9.20;99.90;;;;;;4070768;29;20651;-90
2022/11/27 08:51:17;;;;;;;9.70;3.57;;;9.10;99.90;;;;;;4071351;29;20606;-91
2022/11/27 08:53:19;;;;;;;10.70;3.77;;;9.00;99.90;;;;;;4088830;29;20190;-90
2022/11/27 08:55:20;;;;;;;10.47;3.40;;;9.00;99.90;;;;;;4070142;29;20218;-90
2022/11/27 08:57:24;;;;;;;11.33;4.00;;;9.10;99.90;;;;;;4078136;29;20184;-91
2022/11/27 08:59:25;;;;;;;7.90;3.27;;;9.10;99.90;;;;;;4075925;29;20188;-94
2022/11/27 09:01:31;;;;;;;11.10;4.20;;;9.20;99.90;;;;;;4075229;29;20283;-94
2022/11/27 09:03:37;;;;;;;7.77;3.53;;;9.00;99.90;;;;;;4094010;29;20215;-91
2022/11/27 09:05:43;;;;;;;8.40;3.23;;;8.90;99.90;;;;;;4076342;29;20163;-90
2022/11/27 09:07:44;;;;;;;11.90;4.03;;;8.80;99.90;;;;;;4075341;29;20687;-91
2022/11/27 09:09:45;;;;;;;10.67;3.77;;;8.80;99.90;;;;;;4096408;29;20168;-91
2022/11/27 09:11:47;;;;;;;11.90;4.05;;;8.90;99.90;;;;;;4076728;29;20248;-90
2022/11/27 09:13:48;;;;;;;10.17;3.53;;;8.80;99.90;;;;;;4076302;29;20196;-90
2022/11/27 09:15:49;;;;;;;11.15;3.80;;;8.70;99.90;;;;;;4075194;29;20188;-89
2022/11/27 09:17:59;;;;;;;14.53;4.00;;;8.70;99.90;;;;;;4076213;29;20184;-92
2022/11/27 09:20:14;;;;;;;9.03;3.63;;;8.80;99.90;;;;;;4092443;29;20181;-92
2022/11/27 09:22:19;;;;;;;10.37;3.87;;;8.90;99.90;;;;;;4075464;29;20183;-91
2022/11/27 09:24:20;;;;;;;14.23;3.93;;;8.90;99.90;;;;;;4078833;29;20247;-93
2022/11/27 09:26:24;;;;;;;11.20;3.90;;;8.90;99.90;;;;;;4091940;29;20545;-91
2022/11/27 09:28:28;;;;;;;7.67;3.63;;;8.90;99.90;;;;;;4076227;29;20226;-89
2022/11/27 09:30:29;;;;;;;10.20;3.83;;;9.00;99.90;;;;;;4075489;29;20153;-90
2022/11/27 09:32:30;;;;;;;13.02;4.15;;;9.00;99.90;;;;;;4079621;29;20214;-91
2022/11/27 09:34:30;;;;;;;13.52;4.32;;;9.00;99.90;;;;;;4092008;29;20199;-91
2022/11/27 09:36:33;;;;;;;9.40;3.87;;;8.90;99.90;;;;;;4090178;29;20274;-91
2022/11/27 09:38:36;;;;;;;12.67;4.23;;;8.90;99.90;;;;;;4075523;29;20633;-91
2022/11/27 09:40:49;;;;;;;9.97;4.27;;;8.90;99.90;;;;;;4080026;29;20180;-91
2022/11/27 09:43:14;;;;;;;11.77;4.15;;;9.00;99.90;;;;;;4063823;29;20204;-91
2022/11/27 09:45:17;;;;;;;8.60;3.60;;;9.00;99.90;;;;;;4097792;28;20720;-92
2022/11/27 09:47:29;;;;;;;10.38;4.05;;;9.00;99.90;;;;;;4078914;29;20180;-91
2022/11/27 09:49:40;;;;;;;8.83;4.10;;;8.90;99.90;;;;;;4080641;29;20165;-91
2022/11/27 09:51:57;;;;;;;13.30;3.80;;;9.00;99.90;;;;;;4093476;29;20187;-94
2022/11/27 09:54:22;;;;;;;11.98;4.00;;;8.90;99.90;;;;;;4078723;29;20207;-93
2022/11/27 09:56:23;;;;;;;13.20;4.97;;;9.10;99.90;;;;;;4074778;29;20248;-93
2022/11/27 09:58:41;;;;;;;10.83;4.20;;;9.20;99.90;;;;;;4077278;29;20267;-91
2022/11/27 10:01:10;;;;;;;11.87;3.63;;;9.20;99.90;;;;;;4088134;29;20191;-91
2022/11/27 10:03:23;;;;;;;10.77;3.93;;;9.30;99.90;;;;;;4093771;29;20215;-92
2022/11/27 10:06:01;;;;;;;12.18;3.67;;;9.50;99.90;;;;;;4079288;29;20187;-92
2022/11/27 10:08:25;;;;;;;11.35;3.75;;;9.30;99.90;;;;;;4090137;29;20581;-92
2022/11/27 10:10:50;;;;;;;14.73;4.07;;;9.30;99.90;;;;;;4073832;29;20196;-93
2022/11/27 10:13:20;;;;;;;12.70;4.10;;;9.20;99.90;;;;;;4078415;29;20248;-90
2022/11/27 10:15:47;;;;;;;11.70;4.05;;;9.20;99.90;;;;;;4089852;29;20191;-95
2022/11/27 10:17:57;;;;;;;10.27;4.47;;;9.10;99.90;;;;;;4090365;29;20172;-93
2022/11/27 10:20:27;;;;;;;7.97;3.87;;;9.10;99.90;;;;;;4088655;29;20184;-92
2022/11/27 10:22:34;;;;;;;11.63;4.35;;;9.30;99.90;;;;;;4073878;29;20208;-93
2022/11/27 10:24:44;;;;;;;9.10;3.92;;;9.40;99.90;;;;;;4075429;29;20212;-91
2022/11/27 10:27:30;;;;;;;10.70;4.40;;;9.40;99.90;;;;;;4090654;29;20183;-92
2022/11/27 10:29:51;;;;;;;9.30;3.80;;;9.60;99.90;;;;;;4073543;29;20176;-92
2022/11/27 10:31:58;;;;;;;9.30;3.80;;;9.70;99.90;;;;;;4091698;29;20645;-94
2022/11/27 10:34:04;;;;;;;12.90;4.15;;;9.80;99.90;;;;;;4090831;29;20282;-93
2022/11/27 10:36:13;;;;;;;9.47;4.10;;;9.70;99.90;;;;;;4074032;29;20176;-92
2022/11/27 10:38:20;;;;;;;9.30;3.53;;;9.70;99.90;;;;;;4076538;29;20183;-91
2022/11/27 10:40:42;;;;;;;8.85;3.92;;;9.50;99.90;;;;;;4072665;29;20178;-93
2022/11/27 10:43:07;;;;;;;13.73;4.13;;;9.40;99.90;;;;;;4074466;29;20215;-92
2022/11/27 10:45:23;;;;;;;7.38;3.92;;;9.40;99.90;;;;;;4076253;29;20211;-94
2022/11/27 10:47:27;;;;;;;10.30;3.83;;;9.50;99.90;;;;;;4075594;29;20179;-90
2022/11/27 10:49:28;;;;;;;8.70;3.90;;;9.50;99.90;;;;;;4091328;29;20179;-95
2022/11/27 10:51:33;;;;;;;11.73;3.75;;;9.80;99.90;;;;;;4089532;29;20201;-93
2022/11/27 10:53:36;;;;;;;9.13;4.30;;;9.80;99.90;;;;;;4096063;29;20180;-91
2022/11/27 10:56:09;;;;;;;8.90;3.95;;;9.80;99.90;;;;;;4078329;29;20271;-93
2022/11/27 10:58:30;;;;;;;8.70;4.07;;;9.80;99.90;;;;;;4074694;29;20696;-95
2022/11/27 11:00:32;;;;;;;7.40;3.70;;;9.90;99.90;;;;;;4093945;29;20202;-92
2022/11/27 11:02:38;;;;;;;10.52;4.32;;;9.90;99.90;;;;;;4073890;29;20192;-91
2022/11/27 11:04:39;;;;;;;9.77;3.55;;;9.80;99.90;;;;;;4088693;29;20223;-91
2022/11/27 11:06:48;;;;;;;10.65;3.28;;;9.70;99.90;;;;;;4088440;29;20160;-92
2022/11/27 11:09:27;;;;;;;9.93;4.10;;;9.80;99.90;;;;;;4091799;29;20187;-93
2022/11/27 11:11:29;;;;;;;8.85;3.85;;;9.80;99.90;;;;;;4071732;29;20672;-91
2022/11/27 11:13:32;;;;;;;11.13;4.07;;;9.90;99.90;;;;;;4071496;29;20172;-93
2022/11/27 11:15:42;;;;;;;8.98;3.72;;;10.00;99.90;;;;;;4077307;29;20279;-91
2022/11/27 11:17:42;;;;;;;9.57;3.83;;;9.80;99.90;;;;;;4078996;29;20148;-93
2022/11/27 11:20:23;;;;;;;6.75;3.72;;;9.40;99.90;;;;;;4088222;29;20188;-91
2022/11/27 11:22:24;;;;;;;8.05;3.47;;;9.50;99.90;;;;;;4074403;29;20180;-93
2022/11/27 11:24:31;;;;;;;9.23;4.13;;;9.90;99.90;;;;;;4089462;29;20222;-91
2022/11/27 11:26:36;;;;;;;10.23;3.47;;;10.10;99.90;;;;;;4088635;29;20168;-92
2022/11/27 11:28:49;;;;;;;9.02;3.70;;;10.10;99.90;;;;;;4088370;29;20216;-91
2022/11/27 11:31:04;;;;;;;6.50;3.30;;;10.20;99.90;;;;;;4091658;29;20271;-93
2022/11/27 11:33:12;;;;;;;6.63;3.38;;;10.30;99.90;;;;;;4089896;29;20187;-91
2022/11/27 11:35:34;;;;;;;9.18;3.95;;;10.20;99.90;;;;;;4092585;29;20243;-92
2022/11/27 11:37:46;;;;;;;6.72;3.15;;;10.40;99.90;;;;;;4073130;29;20202;-92
2022/11/27 11:39:56;;;;;;;7.50;3.30;;;10.20;99.90;;;;;;4072755;29;20200;-90
2022/11/27 11:41:57;;;;;;;7.43;3.47;;;10.30;99.90;;;;;;4075517;29;20215;-93
2022/11/27 11:44:00;;;;;;;9.05;3.45;;;10.40;99.90;;;;;;4086782;29;20268;-91
2022/11/27 11:46:23;;;;;;;8.02;3.25;;;10.20;99.90;;;;;;4072851;29;20191;-90
2022/11/27 11:48:26;;;;;;;10.27;3.75;;;10.10;99.90;;;;;;4072591;29;20179;-90
2022/11/27 11:51:01;;;;;;;7.65;3.03;;;10.30;99.90;;;;;;4073420;29;20266;-94
2022/11/27 11:53:21;;;;;;;9.70;3.40;;;10.30;99.90;;;;;;4089793;29;20191;-91
2022/11/27 11:55:29;;;;;;;10.13;3.60;;;10.40;99.90;;;;;;4070871;29;20196;-92
2022/11/27 11:57:33;;;;;;;9.38;3.35;;;10.40;99.90;;;;;;4072682;29;20188;-91
2022/11/27 11:59:57;;;;;;;10.60;2.97;;;10.30;99.90;;;;;;4071744;29;20184;-91
2022/11/27 12:02:26;;;;;;;6.63;3.15;;;10.40;99.90;;;;;;4072123;29;20175;-92
2022/11/27 12:05:07;;;;;;;7.82;3.38;;;10.60;99.90;;;;;;4073607;29;20271;-91
2022/11/27 12:07:26;;;;;;;10.80;3.27;;;10.40;99.90;;;;;;4075167;29;20164;-92
2022/11/27 12:10:11;;;;;;;9.35;3.42;;;10.10;99.90;;;;;;4090344;29;20247;-93
2022/11/27 12:12:36;;;;;;;8.40;3.65;;;10.10;99.90;;;;;;4085774;29;20171;-91
2022/11/27 12:14:54;;;;;;;7.45;3.10;;;9.70;99.90;;;;;;4073331;29;20199;-92
2022/11/27 12:17:30;;;;;;;8.02;3.75;;;9.70;99.90;;;;;;4070836;29;20183;-94
2022/11/27 12:19:46;;;;;;;12.68;3.45;;;10.00;99.90;;;;;;4088056;29;20242;-93
2022/11/27 12:22:27;;;;;;;7.32;3.58;;;10.30;99.90;;;;;;4072691;29;20185;-92
2022/11/27 12:24:33;;;;;;;7.03;3.10;;;10.00;99.90;;;;;;4075344;29;20220;-91
2022/11/27 12:26:55;;;;;;;8.15;2.95;;;9.90;99.90;;;;;;4069710;29;20653;-94
2022/11/27 12:29:04;;;;;;;8.20;3.30;;;9.70;99.90;;;;;;4070037;29;20276;-91
2022/11/27 12:31:13;;;;;;;8.57;3.17;;;9.70;99.90;;;;;;4071764;29;20200;-91
2022/11/27 12:33:59;;;;;;;8.82;3.13;;;9.90;99.90;;;;;;4074097;29;20637;-90
2022/11/27 12:36:15;;;;;;;8.55;2.67;;;10.00;99.90;;;;;;4073928;29;20222;-94
2022/11/27 12:38:24;;;;;;;7.40;3.13;;;10.00;99.90;;;;;;4070710;29;20172;-91
2022/11/27 12:40:44;;;;;;;8.00;3.30;;;9.80;99.90;;;;;;4071636;29;20266;-92
2022/11/27 12:42:50;;;;;;;12.32;3.40;;;10.00;99.90;;;;;;4086333;29;20215;-93
2022/11/27 12:45:14;;;;;;;9.90;3.60;;;10.30;99.90;;;;;;4069533;29;20680;-91
2022/11/27 12:47:52;;;;;;;10.30;4.15;;;10.20;99.90;;;;;;4072030;29;20176;-91
2022/11/27 12:49:59;;;;;;;8.27;3.75;;;10.30;99.90;;;;;;4069325;29;20198;-93
2022/11/27 12:52:20;;;;;;;12.70;3.60;;;10.50;99.90;;;;;;4070269;29;20171;-94
2022/11/27 12:54:45;;;;;;;7.22;3.35;;;10.70;99.90;;;;;;4087401;29;20572;-94
2022/11/27 12:56:53;;;;;;;10.02;3.85;;;10.80;99.90;;;;;;4071051;29;20271;-92
2022/11/27 12:59:19;;;;;;;7.07;3.33;;;10.70;99.90;;;;;;4072942;29;20310;-91
2022/11/27 13:01:27;;;;;;;7.10;3.00;;;10.50;99.90;;;;;;4070167;29;20180;-93
2022/11/27 13:03:32;;;;;;;8.25;3.13;;;10.10;99.90;;;;;;4069862;29;20219;-91
2022/11/27 13:05:50;;;;;;;4.90;2.47;;;9.90;99.90;;;;;;4070145;29;20187;-91
2022/11/27 13:08:03;;;;;;;7.18;2.72;;;10.00;99.90;;;;;;4085168;29;20176;-91
2022/11/27 13:10:45;;;;;;;7.40;2.80;;;9.80;99.90;;;;;;4072490;29;20176;-92
2022/11/27 13:12:52;;;;;;;6.35;3.10;;;9.90;99.90;;;;;;4071034;29;20275;-94
2022/11/27 13:15:14;;;;;;;6.22;2.72;;;9.90;99.90;;;;;;4071090;29;20227;-89
2022/11/27 13:17:16;;;;;;;8.20;2.65;;;9.90;99.90;;;;;;4078169;29;20181;-91
2022/11/27 13:19:27;;;;;;;6.53;3.25;;;9.90;99.90;;;;;;4089411;29;20243;-94
2022/11/27 13:21:33;;;;;;;7.78;2.60;;;9.70;99.90;;;;;;4072099;29;20259;-91
2022/11/27 13:23:34;;;;;;;9.05;3.30;;;9.80;99.90;;;;;;4086930;29;20227;-94
2022/11/27 13:25:55;;;;;;;6.20;2.95;;;9.80;99.90;;;;;;4072154;29;20199;-91
2022/11/27 13:28:01;;;;;;;6.57;3.65;;;10.00;99.90;;;;;;4087249;29;20180;-89
2022/11/27 13:30:06;;;;;;;7.43;3.22;;;10.20;99.90;;;;;;4086462;29;20274;-93
2022/11/27 13:32:09;;;;;;;7.50;3.33;;;10.10;99.90;;;;;;4087296;29;20180;-92
2022/11/27 13:34:22;;;;;;;7.60;3.22;;;10.10;99.90;;;;;;4071408;29;20196;-90
2022/11/27 13:36:26;;;;;;;5.38;2.67;;;10.10;99.90;;;;;;4070476;29;20180;-91
2022/11/27 13:38:27;;;;;;;7.30;3.10;;;10.10;99.90;;;;;;4070177;29;20180;-95
2022/11/27 13:40:38;;;;;;;8.05;3.25;;;10.20;99.90;;;;;;4086399;29;20613;-92
2022/11/27 13:42:44;;;;;;;7.82;2.80;;;10.30;99.90;;;;;;4088375;29;20180;-90
2022/11/27 13:44:54;;;;;;;6.03;2.65;;;10.50;99.90;;;;;;4090943;29;20195;-91
2022/11/27 13:47:06;;;;;;;9.00;2.90;;;10.60;99.90;;;;;;4089959;29;20175;-91
2022/11/27 13:49:07;;;;;;;4.93;2.63;;;10.60;99.90;;;;;;4074342;29;20176;-95
2022/11/27 13:51:20;;;;;;;6.80;2.83;;;10.30;99.90;;;;;;4091988;29;20199;-91
2022/11/27 13:53:36;;;;;;;8.02;2.85;;;10.20;99.90;;;;;;4075547;29;20173;-91
2022/11/27 13:55:40;;;;;;;8.13;2.50;;;10.10;99.90;;;;;;4073775;29;21079;-91
2022/11/27 13:57:51;;;;;;;7.05;2.72;;;10.10;99.90;;;;;;4074391;29;20187;-92
2022/11/27 14:00:05;;;;;;;7.03;3.22;;;10.10;99.90;;;;;;4074448;29;20183;-93
2022/11/27 14:02:13;;;;;;;5.60;3.10;;;10.20;99.90;;;;;;4093713;29;20187;-93
2022/11/27 14:04:14;;;;;;;6.07;2.50;;;10.20;99.90;;;;;;4072950;29;20219;-91
2022/11/27 14:06:25;;;;;;;11.65;2.80;;;10.20;99.90;;;;;;4072355;29;20168;-90
2022/11/27 14:08:34;;;;;;;4.13;2.17;;;10.20;99.90;;;;;;4072337;29;20184;-93
2022/11/27 14:10:46;;;;;;;5.25;2.45;;;10.10;99.90;;;;;;4073905;29;20180;-91
2022/11/27 14:13:03;;;;;;;4.90;2.50;;;10.10;99.90;;;;;;4088827;29;20171;-91
2022/11/27 14:15:09;;;;;;;4.53;2.60;;;10.20;99.90;;;;;;4089997;29;20222;-93
2022/11/27 14:17:25;;;;;;;5.80;2.28;;;10.30;99.90;;;;;;4091272;29;20179;-90
2022/11/27 14:19:44;;;;;;;5.85;2.92;;;10.20;99.90;;;;;;4088211;29;20171;-92
2022/11/27 14:21:45;;;;;;;4.63;2.38;;;10.10;99.90;;;;;;4075867;29;20180;-92
2022/11/27 14:23:53;;;;;;;5.32;2.30;;;10.00;99.90;;;;;;4074271;29;20724;-93
2022/11/27 14:26:13;;;;;;;9.70;2.90;;;10.20;99.90;;;;;;4091216;29;20198;-92
2022/11/27 14:28:26;;;;;;;5.53;2.65;;;10.30;99.90;;;;;;4091371;29;20530;-92
2022/11/27 14:30:31;;;;;;;7.03;2.55;;;10.10;99.90;;;;;;4075753;29;20712;-92
2022/11/27 14:32:36;;;;;;;6.88;2.90;;;10.20;99.90;;;;;;4075185;29;20197;-96
2022/11/27 14:34:36;;;;;;;6.70;2.70;;;10.20;99.90;;;;;;4094982;29;20218;-92
2022/11/27 14:36:37;;;;;;;4.80;2.28;;;10.40;99.90;;;;;;4071678;29;20172;-92
2022/11/27 14:38:38;;;;;;;6.80;2.80;;;10.60;99.90;;;;;;4071758;29;20260;-93
2022/11/27 14:40:39;;;;;;;7.18;2.65;;;10.70;99.90;;;;;;4072495;29;20188;-93
2022/11/27 14:42:39;;;;;;;13.63;3.08;;;10.70;99.90;;;;;;4089867;29;20180;-94
2022/11/27 14:44:43;;;;;;;5.38;2.55;;;10.70;99.90;;;;;;4087700;29;20236;-90
2022/11/27 14:46:44;;;;;;;5.82;2.70;;;10.70;99.90;;;;;;4090255;29;20191;-95
2022/11/27 14:48:55;;;;;;;6.15;2.58;;;10.60;99.90;;;;;;4073118;29;20192;-91
2022/11/27 14:50:56;;;;;;;4.25;2.50;;;10.40;99.90;;;;;;4073650;29;20211;-91
2022/11/27 14:52:58;;;;;;;6.03;2.60;;;10.40;99.90;;;;;;4071955;29;20187;-90
2022/11/27 14:55:01;;;;;;;9.55;3.13;;;10.50;99.90;;;;;;4072826;29;20200;-90
2022/11/27 14:57:04;;;;;;;9.52;2.67;;;10.50;99.90;;;;;;4086131;29;20221;-92
2022/11/27 14:59:06;;;;;;;5.90;2.70;;;10.50;99.90;;;;;;4071624;29;20176;-91
2022/11/27 15:01:19;;;;;;;6.15;2.78;;;10.60;99.90;;;;;;4071291;29;20268;-95
2022/11/27 15:03:20;;;;;;;6.45;2.95;;;10.60;99.90;;;;;;4071884;29;20230;-89
2022/11/27 15:05:31;;;;;;;9.45;2.90;;;10.40;99.90;;;;;;4056006;29;20258;-93
2022/11/27 15:07:35;;;;;;;5.13;2.45;;;10.50;99.90;;;;;;4073595;29;20199;-94
2022/11/27 15:09:36;;;;;;;7.35;2.67;;;10.60;99.90;;;;;;4071649;29;20180;-91
2022/11/27 15:11:40;;;;;;;5.28;2.53;;;10.60;99.90;;;;;;4088105;29;20180;-91
2022/11/27 15:13:41;;;;;;;4.28;2.42;;;10.60;99.90;;;;;;4076549;29;20199;-90
2022/11/27 15:15:43;;;;;;;5.32;2.40;;;10.30;99.90;;;;;;4071447;29;20329;-92
2022/11/27 15:17:50;;;;;;;10.05;3.08;;;10.30;99.90;;;;;;4090340;29;20183;-92
2022/11/27 15:19:52;;;;;;;6.88;2.20;;;10.40;99.90;;;;;;4086244;29;20212;-94
2022/11/27 15:21:53;;;;;;;7.07;2.70;;;10.40;99.90;;;;;;4071829;29;20180;-95
2022/11/27 15:23:58;;;;;;;5.70;3.20;;;10.20;99.90;;;;;;4070936;29;20230;-92
2022/11/27 15:26:02;;;;;;;6.82;2.88;;;10.10;99.90;;;;;;4088567;29;20202;-91
2022/11/27 15:28:27;;;;;;;6.35;2.90;;;10.10;99.90;;;;;;4071139;29;20180;-94
2022/11/27 15:30:28;;;;;;;4.50;2.40;;;10.20;99.90;;;;;;4087411;29;20179;-94
2022/11/27 15:32:52;;;;;;;7.07;2.75;;;10.20;99.90;;;;;;4072419;29;20254;-91
2022/11/27 15:34:53;;;;;;;5.88;2.95;;;10.10;99.90;;;;;;4086284;29;20212;-93
2022/11/27 15:37:00;;;;;;;5.13;2.45;;;10.20;99.90;;;;;;4087796;29;20184;-92
2022/11/27 15:39:30;;;;;;;5.75;2.70;;;10.20;99.90;;;;;;4088730;29;20171;-94
2022/11/27 15:41:35;;;;;;;4.72;2.70;;;10.20;99.90;;;;;;4086929;29;20186;-93
2022/11/27 15:43:36;;;;;;;5.43;2.47;;;10.30;99.90;;;;;;4102904;29;20237;-93
2022/11/27 15:45:37;;;;;;;8.57;2.80;;;10.30;99.90;;;;;;4086178;29;20175;-92
2022/11/27 15:47:40;;;;;;;6.22;2.85;;;10.20;99.90;;;;;;4087530;29;20190;-93
2022/11/27 15:49:43;;;;;;;8.02;2.63;;;10.10;99.90;;;;;;4073160;29;20191;-94
2022/11/27 15:51:46;;;;;;;6.93;2.45;;;10.30;99.90;;;;;;4088876;29;20243;-92
2022/11/27 15:53:49;;;;;;;6.57;2.90;;;10.00;99.90;;;;;;4070515;29;20200;-93
2022/11/27 15:55:50;;;;;;;7.35;3.13;;;10.10;99.90;;;;;;4071612;29;20618;-93
2022/11/27 15:57:51;;;;;;;5.38;2.92;;;9.90;99.90;;;;;;4072934;29;20199;-91
2022/11/27 15:59:52;;;;;;;5.88;2.72;;;9.90;99.90;;;;;;4070928;29;20179;-95
2022/11/27 16:01:53;;;;;;;8.70;3.35;;;9.90;99.90;;;;;;4086169;29;20184;-94
2022/11/27 16:03:58;;;;;;;6.43;3.08;;;10.00;99.90;;;;;;4070716;29;20311;-93
2022/11/27 16:06:04;;;;;;;6.68;3.17;;;10.10;99.90;;;;;;4072555;29;20168;-91
2022/11/27 16:08:06;;;;;;;7.05;2.28;;;10.20;99.90;;;;;;4071609;29;20267;-91
2022/11/27 16:10:07;;;;;;;6.63;3.05;;;10.20;99.90;;;;;;4071722;29;20168;-91
2022/11/27 16:12:11;;;;;;;5.25;2.90;;;10.20;99.90;;;;;;4087222;29;20176;-93
2022/11/27 16:14:12;;;;;;;5.07;2.75;;;10.20;99.90;;;;;;4071542;29;20306;-94
2022/11/27 16:16:12;;;;;;;7.03;2.50;;;10.10;99.90;;;;;;4089097;29;20159;-92
2022/11/27 16:18:14;;;;;;;5.18;2.60;;;10.20;99.90;;;;;;4069834;29;20208;-93
2022/11/27 16:20:15;;;;;;;6.50;3.08;;;10.30;99.90;;;;;;4084808;29;20585;-94
2022/11/27 16:22:16;;;;;;;5.43;2.60;;;10.20;99.90;;;;;;4069913;29;20191;-94
2022/11/27 16:24:16;;;;;;;7.63;2.75;;;9.80;99.90;;;;;;4068723;29;20216;-92
2022/11/27 16:26:17;;;;;;;7.40;2.92;;;9.90;99.90;;;;;;4070145;29;20168;-92
2022/11/27 16:28:18;;;;;;;7.82;2.70;;;9.90;99.90;;;;;;4084384;29;20190;-94
2022/11/27 16:30:20;;;;;;;5.85;3.03;;;10.10;99.90;;;;;;4069352;29;20165;-94
2022/11/27 16:32:21;;;;;;;8.13;3.08;;;10.00;99.90;;;;;;4084599;29;20254;-95
2022/11/27 16:34:24;;;;;;;6.43;2.80;;;10.00;99.90;;;;;;4069069;29;20687;-92
2022/11/27 16:36:26;;;;;;;5.63;2.63;;;9.90;99.90;;;;;;4069091;29;20215;-92
2022/11/27 16:38:27;;;;;;;5.28;2.85;;;9.90;99.90;;;;;;4068736;29;20200;-94
2022/11/27 16:40:28;;;;;;;7.05;2.97;;;10.00;99.90;;;;;;4070752;29;20208;-93
2022/11/27 16:42:29;;;;;;;7.50;2.88;;;9.90;99.90;;;;;;4068946;29;20172;-93
2022/11/27 16:44:30;;;;;;;7.68;2.88;;;10.00;99.90;;;;;;4069612;29;20726;-95
2022/11/27 16:46:31;;;;;;;6.18;2.35;;;9.90;99.90;;;;;;4069348;29;20175;-94
2022/11/27 16:48:36;;;;;;;5.38;2.70;;;9.80;99.90;;;;;;4084660;29;20633;-94
2022/11/27 16:50:37;;;;;;;7.78;3.13;;;9.80;99.90;;;;;;4085199;29;20183;-94
2022/11/27 16:52:38;;;;;;;8.18;2.85;;;10.10;99.90;;;;;;4069793;29;20270;-92
2022/11/27 16:54:40;;;;;;;8.75;3.17;;;10.30;99.90;;;;;;4069548;29;20196;-93
2022/11/27 16:56:41;;;;;;;6.25;2.72;;;10.00;99.90;;;;;;4085709;29;20215;-91
2022/11/27 16:58:44;;;;;;;5.32;3.05;;;10.00;99.90;;;;;;4069140;29;20179;-95
2022/11/27 17:00:47;;;;;;;8.55;3.42;;;9.90;99.90;;;;;;4087261;29;20214;-90
2022/11/27 17:02:48;;;;;;;8.00;3.00;;;9.90;99.90;;;;;;4086484;29;20196;-93
2022/11/27 17:04:49;;;;;;;4.63;2.60;;;10.00;99.90;;;;;;4088348;29;20238;-95
2022/11/27 17:06:50;;;;;;;5.15;2.55;;;9.90;99.90;;;;;;4070123;29;20176;-91
2022/11/27 17:08:53;;;;;;;6.78;3.00;;;9.80;99.90;;;;;;4086126;29;20514;-93
2022/11/27 17:10:54;;;;;;;4.10;2.60;;;9.70;99.90;;;;;;4071288;29;20704;-92